sensor_id;sensor_type;location;lat;lon;timestamp;P1;durP1;ratioP1;P2;durP2;ratioP2
9288;SDS011;4683;50.864;12.086;2023-08-20T00:00:29;8.00;;;7.07;;
9288;SDS011;4683;50.864;12.086;2023-08-20T00:03:03;9.97;;;7.57;;
9288;SDS011;4683;50.864;12.086;2023-08-20T00:05:38;10.13;;;7.70;;
9288;SDS011;4683;50.864;12.086;2023-08-20T00:08:07;7.53;;;6.80;;
9288;SDS011;4683;50.864;12.086;2023-08-20T00:10:35;9.40;;;7.27;;
9288;SDS011;4683;50.864;12.086;2023-08-20T00:13:04;8.53;;;7.63;;
9288;SDS011;4683;50.864;12.086;2023-08-20T00:15:33;8.73;;;7.33;;
9288;SDS011;4683;50.864;12.086;2023-08-20T00:18:03;7.93;;;7.07;;
9288;SDS011;4683;50.864;12.086;2023-08-20T00:20:32;8.13;;;6.90;;
9288;SDS011;4683;50.864;12.086;2023-08-20T00:23:04;8.73;;;7.10;;
9288;SDS011;4683;50.864;12.086;2023-08-20T00:25:33;8.13;;;7.33;;
9288;SDS011;4683;50.864;12.086;2023-08-20T00:28:02;8.73;;;7.27;;
9288;SDS011;4683;50.864;12.086;2023-08-20T00:30:31;8.33;;;7.50;;
9288;SDS011;4683;50.864;12.086;2023-08-20T00:33:01;9.97;;;7.40;;
9288;SDS011;4683;50.864;12.086;2023-08-20T00:35:30;11.13;;;7.17;;
9288;SDS011;4683;50.864;12.086;2023-08-20T00:37:58;8.17;;;7.37;;
9288;SDS011;4683;50.864;12.086;2023-08-20T00:40:28;11.17;;;7.50;;
9288;SDS011;4683;50.864;12.086;2023-08-20T00:42:58;12.63;;;7.60;;
9288;SDS011;4683;50.864;12.086;2023-08-20T00:45:27;9.00;;;7.20;;
9288;SDS011;4683;50.864;12.086;2023-08-20T00:47:56;9.20;;;7.30;;
9288;SDS011;4683;50.864;12.086;2023-08-20T00:50:26;8.07;;;7.30;;
9288;SDS011;4683;50.864;12.086;2023-08-20T00:52:54;7.90;;;6.73;;
9288;SDS011;4683;50.864;12.086;2023-08-20T00:55:22;8.93;;;6.80;;
9288;SDS011;4683;50.864;12.086;2023-08-20T00:57:52;11.37;;;7.60;;
9288;SDS011;4683;50.864;12.086;2023-08-20T01:00:21;8.20;;;7.00;;
9288;SDS011;4683;50.864;12.086;2023-08-20T01:02:51;7.77;;;6.90;;
9288;SDS011;4683;50.864;12.086;2023-08-20T01:05:21;8.53;;;7.70;;
9288;SDS011;4683;50.864;12.086;2023-08-20T01:07:54;9.67;;;7.93;;
9288;SDS011;4683;50.864;12.086;2023-08-20T01:10:34;9.27;;;8.17;;
9288;SDS011;4683;50.864;12.086;2023-08-20T01:13:11;8.10;;;7.30;;
9288;SDS011;4683;50.864;12.086;2023-08-20T01:15:39;10.17;;;7.87;;
9288;SDS011;4683;50.864;12.086;2023-08-20T01:18:07;8.33;;;7.63;;
9288;SDS011;4683;50.864;12.086;2023-08-20T01:20:39;9.73;;;8.70;;
9288;SDS011;4683;50.864;12.086;2023-08-20T01:26:35;9.20;;;7.37;;
9288;SDS011;4683;50.864;12.086;2023-08-20T01:29:23;12.07;;;8.23;;
9288;SDS011;4683;50.864;12.086;2023-08-20T01:31:52;9.00;;;8.10;;
9288;SDS011;4683;50.864;12.086;2023-08-20T01:34:21;10.67;;;7.53;;
9288;SDS011;4683;50.864;12.086;2023-08-20T01:36:50;8.07;;;7.47;;
9288;SDS011;4683;50.864;12.086;2023-08-20T01:39:19;9.07;;;8.27;;
9288;SDS011;4683;50.864;12.086;2023-08-20T01:41:47;8.63;;;7.90;;
9288;SDS011;4683;50.864;12.086;2023-08-20T01:44:16;9.53;;;7.30;;
9288;SDS011;4683;50.864;12.086;2023-08-20T01:46:46;8.97;;;8.13;;
9288;SDS011;4683;50.864;12.086;2023-08-20T01:49:14;8.33;;;7.53;;
9288;SDS011;4683;50.864;12.086;2023-08-20T01:51:42;7.90;;;7.20;;
9288;SDS011;4683;50.864;12.086;2023-08-20T01:54:11;8.47;;;7.60;;
9288;SDS011;4683;50.864;12.086;2023-08-20T01:56:40;9.17;;;8.13;;
9288;SDS011;4683;50.864;12.086;2023-08-20T01:59:08;9.27;;;7.90;;
9288;SDS011;4683;50.864;12.086;2023-08-20T02:01:37;8.37;;;7.60;;
9288;SDS011;4683;50.864;12.086;2023-08-20T02:04:07;8.43;;;7.70;;
9288;SDS011;4683;50.864;12.086;2023-08-20T02:06:35;8.00;;;7.30;;
9288;SDS011;4683;50.864;12.086;2023-08-20T02:09:03;9.27;;;8.40;;
9288;SDS011;4683;50.864;12.086;2023-08-20T02:11:31;9.70;;;8.00;;
9288;SDS011;4683;50.864;12.086;2023-08-20T02:14:01;9.33;;;8.00;;
9288;SDS011;4683;50.864;12.086;2023-08-20T02:16:30;8.60;;;7.87;;
9288;SDS011;4683;50.864;12.086;2023-08-20T02:18:58;8.17;;;7.50;;
9288;SDS011;4683;50.864;12.086;2023-08-20T02:21:29;8.30;;;7.43;;
9288;SDS011;4683;50.864;12.086;2023-08-20T02:23:58;9.13;;;8.13;;
9288;SDS011;4683;50.864;12.086;2023-08-20T02:26:26;8.67;;;7.67;;
9288;SDS011;4683;50.864;12.086;2023-08-20T02:28:56;8.80;;;7.90;;
9288;SDS011;4683;50.864;12.086;2023-08-20T02:31:24;8.53;;;7.87;;
9288;SDS011;4683;50.864;12.086;2023-08-20T02:33:52;8.57;;;7.73;;
9288;SDS011;4683;50.864;12.086;2023-08-20T02:36:24;9.40;;;8.03;;
9288;SDS011;4683;50.864;12.086;2023-08-20T02:38:55;8.93;;;8.03;;
9288;SDS011;4683;50.864;12.086;2023-08-20T02:41:23;9.90;;;7.83;;
9288;SDS011;4683;50.864;12.086;2023-08-20T02:43:51;8.53;;;7.63;;
9288;SDS011;4683;50.864;12.086;2023-08-20T02:46:20;8.30;;;7.60;;
9288;SDS011;4683;50.864;12.086;2023-08-20T02:48:48;9.73;;;7.47;;
9288;SDS011;4683;50.864;12.086;2023-08-20T02:55:29;9.63;;;7.73;;
9288;SDS011;4683;50.864;12.086;2023-08-20T02:57:59;12.07;;;8.07;;
9288;SDS011;4683;50.864;12.086;2023-08-20T03:00:28;8.87;;;7.60;;
9288;SDS011;4683;50.864;12.086;2023-08-20T03:02:57;8.90;;;8.10;;
9288;SDS011;4683;50.864;12.086;2023-08-20T03:05:25;8.83;;;7.93;;
9288;SDS011;4683;50.864;12.086;2023-08-20T03:07:54;10.07;;;8.20;;
9288;SDS011;4683;50.864;12.086;2023-08-20T03:10:23;9.00;;;7.87;;
9288;SDS011;4683;50.864;12.086;2023-08-20T03:12:54;8.57;;;7.53;;
9288;SDS011;4683;50.864;12.086;2023-08-20T03:15:23;10.80;;;8.20;;
9288;SDS011;4683;50.864;12.086;2023-08-20T03:17:54;12.70;;;8.07;;
9288;SDS011;4683;50.864;12.086;2023-08-20T03:20:23;9.40;;;8.40;;
9288;SDS011;4683;50.864;12.086;2023-08-20T03:22:53;9.47;;;8.43;;
9288;SDS011;4683;50.864;12.086;2023-08-20T03:25:21;8.60;;;7.80;;
9288;SDS011;4683;50.864;12.086;2023-08-20T03:27:51;9.40;;;8.47;;
9288;SDS011;4683;50.864;12.086;2023-08-20T03:30:21;9.93;;;8.93;;
9288;SDS011;4683;50.864;12.086;2023-08-20T03:32:49;10.10;;;9.17;;
9288;SDS011;4683;50.864;12.086;2023-08-20T03:35:18;11.07;;;9.90;;
9288;SDS011;4683;50.864;12.086;2023-08-20T03:37:47;10.70;;;9.73;;
9288;SDS011;4683;50.864;12.086;2023-08-20T03:40:16;12.00;;;10.80;;
9288;SDS011;4683;50.864;12.086;2023-08-20T03:42:45;12.80;;;11.57;;
9288;SDS011;4683;50.864;12.086;2023-08-20T03:45:13;13.13;;;11.73;;
9288;SDS011;4683;50.864;12.086;2023-08-20T03:47:43;15.93;;;13.23;;
9288;SDS011;4683;50.864;12.086;2023-08-20T03:50:12;13.73;;;12.53;;
9288;SDS011;4683;50.864;12.086;2023-08-20T03:52:41;15.87;;;14.37;;
9288;SDS011;4683;50.864;12.086;2023-08-20T03:55:09;15.97;;;14.47;;
9288;SDS011;4683;50.864;12.086;2023-08-20T03:57:37;17.60;;;15.83;;
9288;SDS011;4683;50.864;12.086;2023-08-20T04:00:06;19.40;;;17.70;;
9288;SDS011;4683;50.864;12.086;2023-08-20T04:02:36;17.83;;;16.20;;
9288;SDS011;4683;50.864;12.086;2023-08-20T04:05:06;17.87;;;16.07;;
9288;SDS011;4683;50.864;12.086;2023-08-20T04:07:35;20.70;;;18.73;;
9288;SDS011;4683;50.864;12.086;2023-08-20T04:10:03;21.67;;;19.53;;
9288;SDS011;4683;50.864;12.086;2023-08-20T04:12:34;21.03;;;18.90;;
9288;SDS011;4683;50.864;12.086;2023-08-20T04:15:03;22.83;;;20.57;;
9288;SDS011;4683;50.864;12.086;2023-08-20T04:17:33;22.80;;;20.50;;
9288;SDS011;4683;50.864;12.086;2023-08-20T04:20:01;22.70;;;20.47;;
9288;SDS011;4683;50.864;12.086;2023-08-20T04:22:35;24.33;;;22.07;;
9288;SDS011;4683;50.864;12.086;2023-08-20T04:25:04;25.10;;;22.57;;
9288;SDS011;4683;50.864;12.086;2023-08-20T04:27:34;24.97;;;22.70;;
9288;SDS011;4683;50.864;12.086;2023-08-20T04:30:03;24.60;;;22.30;;
9288;SDS011;4683;50.864;12.086;2023-08-20T04:32:33;25.90;;;23.23;;
9288;SDS011;4683;50.864;12.086;2023-08-20T04:35:02;25.53;;;23.00;;
9288;SDS011;4683;50.864;12.086;2023-08-20T04:37:31;25.47;;;22.97;;
9288;SDS011;4683;50.864;12.086;2023-08-20T04:40:01;25.07;;;22.67;;
9288;SDS011;4683;50.864;12.086;2023-08-20T04:42:31;23.67;;;21.47;;
9288;SDS011;4683;50.864;12.086;2023-08-20T04:44:59;24.43;;;22.00;;
9288;SDS011;4683;50.864;12.086;2023-08-20T04:50:24;25.07;;;22.53;;
9288;SDS011;4683;50.864;12.086;2023-08-20T04:52:52;25.40;;;22.80;;
9288;SDS011;4683;50.864;12.086;2023-08-20T04:55:22;25.07;;;22.77;;
9288;SDS011;4683;50.864;12.086;2023-08-20T04:57:50;24.97;;;22.57;;
9288;SDS011;4683;50.864;12.086;2023-08-20T05:00:19;24.40;;;21.90;;
9288;SDS011;4683;50.864;12.086;2023-08-20T05:02:48;26.43;;;23.67;;
9288;SDS011;4683;50.864;12.086;2023-08-20T05:05:17;25.40;;;22.83;;
9288;SDS011;4683;50.864;12.086;2023-08-20T05:07:45;26.30;;;23.67;;
9288;SDS011;4683;50.864;12.086;2023-08-20T05:10:14;24.33;;;21.87;;
9288;SDS011;4683;50.864;12.086;2023-08-20T05:12:44;23.43;;;21.23;;
9288;SDS011;4683;50.864;12.086;2023-08-20T05:15:13;24.23;;;21.93;;
9288;SDS011;4683;50.864;12.086;2023-08-20T05:17:41;26.27;;;23.67;;
9288;SDS011;4683;50.864;12.086;2023-08-20T05:20:13;25.23;;;22.87;;
9288;SDS011;4683;50.864;12.086;2023-08-20T05:22:42;23.63;;;21.50;;
9288;SDS011;4683;50.864;12.086;2023-08-20T05:25:10;22.93;;;20.77;;
9288;SDS011;4683;50.864;12.086;2023-08-20T05:27:39;25.83;;;23.43;;
9288;SDS011;4683;50.864;12.086;2023-08-20T05:30:08;27.63;;;24.90;;
9288;SDS011;4683;50.864;12.086;2023-08-20T05:32:38;25.83;;;23.40;;
9288;SDS011;4683;50.864;12.086;2023-08-20T05:35:07;26.60;;;24.13;;
9288;SDS011;4683;50.864;12.086;2023-08-20T05:37:35;26.93;;;24.47;;
9288;SDS011;4683;50.864;12.086;2023-08-20T05:40:04;27.50;;;24.93;;
9288;SDS011;4683;50.864;12.086;2023-08-20T05:42:34;26.53;;;24.03;;
9288;SDS011;4683;50.864;12.086;2023-08-20T05:45:03;26.57;;;24.03;;
9288;SDS011;4683;50.864;12.086;2023-08-20T05:47:33;26.93;;;24.33;;
9288;SDS011;4683;50.864;12.086;2023-08-20T05:50:02;28.03;;;25.43;;
9288;SDS011;4683;50.864;12.086;2023-08-20T05:52:31;26.00;;;23.70;;
9288;SDS011;4683;50.864;12.086;2023-08-20T05:54:59;26.97;;;24.60;;
9288;SDS011;4683;50.864;12.086;2023-08-20T05:57:29;27.60;;;25.00;;
9288;SDS011;4683;50.864;12.086;2023-08-20T05:59:57;28.77;;;26.07;;
9288;SDS011;4683;50.864;12.086;2023-08-20T06:02:25;29.53;;;26.87;;
9288;SDS011;4683;50.864;12.086;2023-08-20T06:04:55;30.00;;;27.17;;
9288;SDS011;4683;50.864;12.086;2023-08-20T06:07:23;31.27;;;28.50;;
9288;SDS011;4683;50.864;12.086;2023-08-20T06:09:52;32.67;;;29.60;;
9288;SDS011;4683;50.864;12.086;2023-08-20T06:12:39;32.37;;;29.40;;
9288;SDS011;4683;50.864;12.086;2023-08-20T06:15:07;30.77;;;28.07;;
9288;SDS011;4683;50.864;12.086;2023-08-20T06:17:37;32.43;;;29.50;;
9288;SDS011;4683;50.864;12.086;2023-08-20T06:20:07;31.83;;;29.03;;
9288;SDS011;4683;50.864;12.086;2023-08-20T06:22:37;32.47;;;29.47;;
9288;SDS011;4683;50.864;12.086;2023-08-20T06:25:06;29.17;;;26.53;;
9288;SDS011;4683;50.864;12.086;2023-08-20T06:27:35;28.83;;;26.33;;
9288;SDS011;4683;50.864;12.086;2023-08-20T06:30:05;29.10;;;26.50;;
9288;SDS011;4683;50.864;12.086;2023-08-20T06:32:35;28.30;;;25.83;;
9288;SDS011;4683;50.864;12.086;2023-08-20T06:35:04;28.27;;;25.67;;
9288;SDS011;4683;50.864;12.086;2023-08-20T06:37:38;29.03;;;26.53;;
9288;SDS011;4683;50.864;12.086;2023-08-20T06:40:07;28.37;;;25.80;;
9288;SDS011;4683;50.864;12.086;2023-08-20T06:42:37;26.67;;;24.17;;
9288;SDS011;4683;50.864;12.086;2023-08-20T06:45:08;26.43;;;24.07;;
9288;SDS011;4683;50.864;12.086;2023-08-20T06:47:37;27.63;;;25.17;;
9288;SDS011;4683;50.864;12.086;2023-08-20T06:50:07;27.43;;;25.13;;
9288;SDS011;4683;50.864;12.086;2023-08-20T06:52:36;27.97;;;25.47;;
9288;SDS011;4683;50.864;12.086;2023-08-20T06:55:04;26.70;;;24.33;;
9288;SDS011;4683;50.864;12.086;2023-08-20T06:57:33;26.60;;;24.20;;
9288;SDS011;4683;50.864;12.086;2023-08-20T07:00:01;24.23;;;22.13;;
9288;SDS011;4683;50.864;12.086;2023-08-20T07:02:31;23.97;;;21.73;;
9288;SDS011;4683;50.864;12.086;2023-08-20T07:05:00;24.27;;;22.17;;
9288;SDS011;4683;50.864;12.086;2023-08-20T07:07:30;24.40;;;22.00;;
9288;SDS011;4683;50.864;12.086;2023-08-20T07:09:58;24.83;;;22.70;;
9288;SDS011;4683;50.864;12.086;2023-08-20T07:12:26;24.90;;;22.80;;
9288;SDS011;4683;50.864;12.086;2023-08-20T07:14:55;26.97;;;24.50;;
9288;SDS011;4683;50.864;12.086;2023-08-20T07:17:26;26.43;;;24.13;;
9288;SDS011;4683;50.864;12.086;2023-08-20T07:19:54;24.30;;;22.03;;
9288;SDS011;4683;50.864;12.086;2023-08-20T07:22:22;28.47;;;25.80;;
9288;SDS011;4683;50.864;12.086;2023-08-20T07:24:53;29.77;;;26.87;;
9288;SDS011;4683;50.864;12.086;2023-08-20T07:27:21;28.27;;;25.53;;
9288;SDS011;4683;50.864;12.086;2023-08-20T07:29:50;28.63;;;26.03;;
9288;SDS011;4683;50.864;12.086;2023-08-20T07:32:18;28.60;;;25.67;;
9288;SDS011;4683;50.864;12.086;2023-08-20T07:34:47;28.53;;;25.93;;
9288;SDS011;4683;50.864;12.086;2023-08-20T07:37:16;29.13;;;26.33;;
9288;SDS011;4683;50.864;12.086;2023-08-20T07:39:45;26.70;;;24.00;;
9288;SDS011;4683;50.864;12.086;2023-08-20T07:42:16;27.03;;;24.53;;
9288;SDS011;4683;50.864;12.086;2023-08-20T07:44:45;25.73;;;23.13;;
9288;SDS011;4683;50.864;12.086;2023-08-20T07:47:14;26.60;;;24.20;;
9288;SDS011;4683;50.864;12.086;2023-08-20T07:49:44;27.97;;;25.07;;
9288;SDS011;4683;50.864;12.086;2023-08-20T07:52:14;26.90;;;24.33;;
9288;SDS011;4683;50.864;12.086;2023-08-20T07:54:46;27.07;;;24.33;;
9288;SDS011;4683;50.864;12.086;2023-08-20T07:57:16;29.30;;;26.40;;
9288;SDS011;4683;50.864;12.086;2023-08-20T07:59:46;29.00;;;26.20;;
9288;SDS011;4683;50.864;12.086;2023-08-20T08:02:15;27.57;;;24.87;;
9288;SDS011;4683;50.864;12.086;2023-08-20T08:04:45;26.27;;;23.77;;
9288;SDS011;4683;50.864;12.086;2023-08-20T08:07:14;25.10;;;22.80;;
9288;SDS011;4683;50.864;12.086;2023-08-20T08:09:43;25.93;;;23.33;;
9288;SDS011;4683;50.864;12.086;2023-08-20T08:12:13;24.60;;;22.30;;
9288;SDS011;4683;50.864;12.086;2023-08-20T08:14:43;23.70;;;21.57;;
9288;SDS011;4683;50.864;12.086;2023-08-20T08:17:12;24.57;;;22.20;;
9288;SDS011;4683;50.864;12.086;2023-08-20T08:19:41;23.20;;;21.00;;
9288;SDS011;4683;50.864;12.086;2023-08-20T08:22:10;23.70;;;21.60;;
9288;SDS011;4683;50.864;12.086;2023-08-20T08:24:39;22.13;;;20.23;;
9288;SDS011;4683;50.864;12.086;2023-08-20T08:27:09;22.27;;;20.17;;
9288;SDS011;4683;50.864;12.086;2023-08-20T08:29:40;21.40;;;19.47;;
9288;SDS011;4683;50.864;12.086;2023-08-20T08:32:10;22.30;;;20.20;;
9288;SDS011;4683;50.864;12.086;2023-08-20T08:34:39;22.80;;;20.73;;
9288;SDS011;4683;50.864;12.086;2023-08-20T08:37:09;22.73;;;20.67;;
9288;SDS011;4683;50.864;12.086;2023-08-20T08:39:38;22.57;;;20.77;;
9288;SDS011;4683;50.864;12.086;2023-08-20T08:42:06;22.23;;;20.13;;
9288;SDS011;4683;50.864;12.086;2023-08-20T08:44:38;23.17;;;21.03;;
9288;SDS011;4683;50.864;12.086;2023-08-20T08:47:09;25.80;;;23.30;;
9288;SDS011;4683;50.864;12.086;2023-08-20T08:49:39;24.27;;;22.00;;
9288;SDS011;4683;50.864;12.086;2023-08-20T08:52:09;24.27;;;21.97;;
9288;SDS011;4683;50.864;12.086;2023-08-20T08:54:39;22.60;;;20.47;;
9288;SDS011;4683;50.864;12.086;2023-08-20T08:57:08;22.27;;;20.27;;
9288;SDS011;4683;50.864;12.086;2023-08-20T08:59:37;21.63;;;19.73;;
9288;SDS011;4683;50.864;12.086;2023-08-20T09:02:13;24.23;;;21.93;;
9288;SDS011;4683;50.864;12.086;2023-08-20T09:04:45;21.43;;;19.47;;
9288;SDS011;4683;50.864;12.086;2023-08-20T09:07:14;22.13;;;20.20;;
9288;SDS011;4683;50.864;12.086;2023-08-20T09:09:43;23.07;;;20.87;;
9288;SDS011;4683;50.864;12.086;2023-08-20T09:12:14;22.70;;;20.63;;
9288;SDS011;4683;50.864;12.086;2023-08-20T09:14:45;22.80;;;20.70;;
9288;SDS011;4683;50.864;12.086;2023-08-20T09:17:16;24.00;;;21.83;;
9288;SDS011;4683;50.864;12.086;2023-08-20T09:19:47;21.50;;;19.50;;
9288;SDS011;4683;50.864;12.086;2023-08-20T09:22:18;23.97;;;21.67;;
9288;SDS011;4683;50.864;12.086;2023-08-20T09:24:52;22.83;;;20.67;;
9288;SDS011;4683;50.864;12.086;2023-08-20T09:27:21;21.33;;;19.40;;
9288;SDS011;4683;50.864;12.086;2023-08-20T09:29:53;22.60;;;20.50;;
9288;SDS011;4683;50.864;12.086;2023-08-20T09:32:25;21.20;;;19.20;;
9288;SDS011;4683;50.864;12.086;2023-08-20T09:34:55;20.80;;;19.00;;
9288;SDS011;4683;50.864;12.086;2023-08-20T09:37:24;20.90;;;18.97;;
9288;SDS011;4683;50.864;12.086;2023-08-20T09:39:52;21.60;;;19.47;;
9288;SDS011;4683;50.864;12.086;2023-08-20T09:42:23;20.70;;;18.57;;
9288;SDS011;4683;50.864;12.086;2023-08-20T09:44:56;19.57;;;17.77;;
9288;SDS011;4683;50.864;12.086;2023-08-20T09:47:27;19.87;;;17.97;;
9288;SDS011;4683;50.864;12.086;2023-08-20T09:50:02;18.87;;;17.37;;
9288;SDS011;4683;50.864;12.086;2023-08-20T09:52:38;19.33;;;17.70;;
9288;SDS011;4683;50.864;12.086;2023-08-20T09:55:16;19.40;;;17.60;;
9288;SDS011;4683;50.864;12.086;2023-08-20T09:57:50;18.97;;;17.33;;
9288;SDS011;4683;50.864;12.086;2023-08-20T10:00:21;19.07;;;17.30;;
9288;SDS011;4683;50.864;12.086;2023-08-20T10:02:51;20.27;;;18.57;;
9288;SDS011;4683;50.864;12.086;2023-08-20T10:05:22;20.87;;;18.93;;
9288;SDS011;4683;50.864;12.086;2023-08-20T10:07:52;19.07;;;17.47;;
9288;SDS011;4683;50.864;12.086;2023-08-20T10:10:22;19.50;;;17.77;;
9288;SDS011;4683;50.864;12.086;2023-08-20T10:12:53;18.17;;;16.47;;
9288;SDS011;4683;50.864;12.086;2023-08-20T10:15:23;19.13;;;17.47;;
9288;SDS011;4683;50.864;12.086;2023-08-20T10:17:55;18.17;;;16.67;;
9288;SDS011;4683;50.864;12.086;2023-08-20T10:20:29;17.07;;;15.63;;
9288;SDS011;4683;50.864;12.086;2023-08-20T10:23:00;16.80;;;15.37;;
9288;SDS011;4683;50.864;12.086;2023-08-20T10:25:30;16.43;;;15.13;;
9288;SDS011;4683;50.864;12.086;2023-08-20T10:28:11;16.63;;;15.13;;
9288;SDS011;4683;50.864;12.086;2023-08-20T10:33:49;16.17;;;14.87;;
9288;SDS011;4683;50.864;12.086;2023-08-20T10:36:26;15.13;;;13.80;;
9288;SDS011;4683;50.864;12.086;2023-08-20T10:38:55;14.87;;;13.47;;
9288;SDS011;4683;50.864;12.086;2023-08-20T10:41:24;15.27;;;13.87;;
9288;SDS011;4683;50.864;12.086;2023-08-20T10:43:57;16.37;;;15.07;;
9288;SDS011;4683;50.864;12.086;2023-08-20T10:46:27;17.53;;;15.90;;
9288;SDS011;4683;50.864;12.086;2023-08-20T10:48:58;16.37;;;14.97;;
9288;SDS011;4683;50.864;12.086;2023-08-20T10:51:32;14.90;;;13.60;;
9288;SDS011;4683;50.864;12.086;2023-08-20T10:54:02;15.00;;;13.73;;
9288;SDS011;4683;50.864;12.086;2023-08-20T10:56:38;15.00;;;13.70;;
9288;SDS011;4683;50.864;12.086;2023-08-20T10:59:16;15.17;;;13.70;;
9288;SDS011;4683;50.864;12.086;2023-08-20T11:01:52;15.30;;;14.10;;
9288;SDS011;4683;50.864;12.086;2023-08-20T11:04:22;15.30;;;13.90;;
9288;SDS011;4683;50.864;12.086;2023-08-20T11:06:55;15.50;;;14.10;;
9288;SDS011;4683;50.864;12.086;2023-08-20T11:09:29;14.33;;;13.13;;
9288;SDS011;4683;50.864;12.086;2023-08-20T11:11:58;15.37;;;14.20;;
9288;SDS011;4683;50.864;12.086;2023-08-20T11:14:27;14.33;;;13.23;;
9288;SDS011;4683;50.864;12.086;2023-08-20T11:16:58;14.57;;;13.37;;
9288;SDS011;4683;50.864;12.086;2023-08-20T11:19:26;15.00;;;13.80;;
9288;SDS011;4683;50.864;12.086;2023-08-20T11:21:55;13.97;;;12.53;;
9288;SDS011;4683;50.864;12.086;2023-08-20T11:24:27;13.90;;;12.60;;
9288;SDS011;4683;50.864;12.086;2023-08-20T11:26:59;14.07;;;12.87;;
9288;SDS011;4683;50.864;12.086;2023-08-20T11:29:29;14.73;;;13.43;;
9288;SDS011;4683;50.864;12.086;2023-08-20T11:32:02;13.83;;;12.70;;
9288;SDS011;4683;50.864;12.086;2023-08-20T11:34:33;13.90;;;12.80;;
9288;SDS011;4683;50.864;12.086;2023-08-20T11:37:03;14.50;;;13.20;;
9288;SDS011;4683;50.864;12.086;2023-08-20T11:39:36;14.57;;;13.30;;
9288;SDS011;4683;50.864;12.086;2023-08-20T11:42:05;14.30;;;13.00;;
9288;SDS011;4683;50.864;12.086;2023-08-20T11:44:42;14.10;;;12.83;;
9288;SDS011;4683;50.864;12.086;2023-08-20T11:47:14;13.17;;;12.07;;
9288;SDS011;4683;50.864;12.086;2023-08-20T11:49:45;14.23;;;13.10;;
9288;SDS011;4683;50.864;12.086;2023-08-20T11:52:15;13.70;;;12.53;;
9288;SDS011;4683;50.864;12.086;2023-08-20T11:54:50;13.63;;;12.53;;
9288;SDS011;4683;50.864;12.086;2023-08-20T11:57:24;13.20;;;12.00;;
9288;SDS011;4683;50.864;12.086;2023-08-20T11:59:55;12.97;;;11.83;;
9288;SDS011;4683;50.864;12.086;2023-08-20T12:02:32;13.63;;;12.53;;
9288;SDS011;4683;50.864;12.086;2023-08-20T12:05:08;12.57;;;11.57;;
9288;SDS011;4683;50.864;12.086;2023-08-20T12:07:53;12.97;;;11.90;;
9288;SDS011;4683;50.864;12.086;2023-08-20T12:10:27;13.10;;;11.80;;
9288;SDS011;4683;50.864;12.086;2023-08-20T12:13:00;13.23;;;12.03;;
9288;SDS011;4683;50.864;12.086;2023-08-20T12:15:31;14.03;;;12.93;;
9288;SDS011;4683;50.864;12.086;2023-08-20T12:18:09;14.17;;;12.90;;
9288;SDS011;4683;50.864;12.086;2023-08-20T12:20:39;12.77;;;11.73;;
9288;SDS011;4683;50.864;12.086;2023-08-20T12:23:12;13.43;;;12.33;;
9288;SDS011;4683;50.864;12.086;2023-08-20T12:25:49;13.20;;;12.00;;
9288;SDS011;4683;50.864;12.086;2023-08-20T12:28:24;13.07;;;11.97;;
9288;SDS011;4683;50.864;12.086;2023-08-20T12:30:54;12.47;;;11.47;;
9288;SDS011;4683;50.864;12.086;2023-08-20T12:33:27;13.13;;;12.07;;
9288;SDS011;4683;50.864;12.086;2023-08-20T12:35:58;13.27;;;12.07;;
9288;SDS011;4683;50.864;12.086;2023-08-20T12:38:30;12.57;;;11.47;;
9288;SDS011;4683;50.864;12.086;2023-08-20T12:41:01;11.97;;;11.07;;
9288;SDS011;4683;50.864;12.086;2023-08-20T12:43:51;12.40;;;11.37;;
9288;SDS011;4683;50.864;12.086;2023-08-20T12:46:32;12.63;;;11.63;;
9288;SDS011;4683;50.864;12.086;2023-08-20T12:49:07;12.07;;;11.07;;
9288;SDS011;4683;50.864;12.086;2023-08-20T12:51:36;12.20;;;11.20;;
9288;SDS011;4683;50.864;12.086;2023-08-20T12:54:05;11.77;;;10.80;;
9288;SDS011;4683;50.864;12.086;2023-08-20T12:56:34;11.67;;;10.77;;
9288;SDS011;4683;50.864;12.086;2023-08-20T12:59:03;12.20;;;11.20;;
9288;SDS011;4683;50.864;12.086;2023-08-20T13:01:31;12.10;;;11.00;;
9288;SDS011;4683;50.864;12.086;2023-08-20T13:04:01;11.87;;;10.87;;
9288;SDS011;4683;50.864;12.086;2023-08-20T13:06:32;11.93;;;11.00;;
9288;SDS011;4683;50.864;12.086;2023-08-20T13:09:03;12.37;;;11.47;;
9288;SDS011;4683;50.864;12.086;2023-08-20T13:11:35;12.60;;;11.60;;
9288;SDS011;4683;50.864;12.086;2023-08-20T13:14:07;11.67;;;10.77;;
9288;SDS011;4683;50.864;12.086;2023-08-20T13:16:36;11.47;;;10.57;;
9288;SDS011;4683;50.864;12.086;2023-08-20T13:19:05;12.00;;;11.00;;
9288;SDS011;4683;50.864;12.086;2023-08-20T13:21:38;12.20;;;11.07;;
9288;SDS011;4683;50.864;12.086;2023-08-20T13:24:08;12.23;;;11.13;;
9288;SDS011;4683;50.864;12.086;2023-08-20T13:26:36;11.73;;;10.73;;
9288;SDS011;4683;50.864;12.086;2023-08-20T13:29:04;12.00;;;10.80;;
9288;SDS011;4683;50.864;12.086;2023-08-20T13:31:32;11.30;;;10.40;;
9288;SDS011;4683;50.864;12.086;2023-08-20T13:34:01;12.77;;;11.70;;
9288;SDS011;4683;50.864;12.086;2023-08-20T13:36:32;12.07;;;11.13;;
9288;SDS011;4683;50.864;12.086;2023-08-20T13:39:01;11.20;;;10.27;;
9288;SDS011;4683;50.864;12.086;2023-08-20T13:41:31;10.83;;;9.80;;
9288;SDS011;4683;50.864;12.086;2023-08-20T13:44:00;11.10;;;10.20;;
9288;SDS011;4683;50.864;12.086;2023-08-20T13:46:30;11.53;;;10.53;;
9288;SDS011;4683;50.864;12.086;2023-08-20T13:49:00;11.87;;;10.87;;
9288;SDS011;4683;50.864;12.086;2023-08-20T13:51:30;11.80;;;10.70;;
9288;SDS011;4683;50.864;12.086;2023-08-20T13:53:59;12.53;;;10.60;;
9288;SDS011;4683;50.864;12.086;2023-08-20T13:56:29;11.43;;;10.23;;
9288;SDS011;4683;50.864;12.086;2023-08-20T13:58:59;10.53;;;9.73;;
9288;SDS011;4683;50.864;12.086;2023-08-20T14:01:28;11.17;;;9.70;;
9288;SDS011;4683;50.864;12.086;2023-08-20T14:03:57;11.73;;;10.67;;
9288;SDS011;4683;50.864;12.086;2023-08-20T14:06:25;11.37;;;10.40;;
9288;SDS011;4683;50.864;12.086;2023-08-20T14:08:54;12.03;;;11.00;;
9288;SDS011;4683;50.864;12.086;2023-08-20T14:11:25;10.77;;;9.70;;
9288;SDS011;4683;50.864;12.086;2023-08-20T14:13:53;11.33;;;10.33;;
9288;SDS011;4683;50.864;12.086;2023-08-20T14:16:22;11.90;;;10.80;;
9288;SDS011;4683;50.864;12.086;2023-08-20T14:18:51;11.50;;;10.57;;
9288;SDS011;4683;50.864;12.086;2023-08-20T14:21:20;11.40;;;10.43;;
9288;SDS011;4683;50.864;12.086;2023-08-20T14:23:51;12.20;;;11.10;;
9288;SDS011;4683;50.864;12.086;2023-08-20T14:26:19;11.93;;;10.83;;
9288;SDS011;4683;50.864;12.086;2023-08-20T14:28:49;12.20;;;11.10;;
9288;SDS011;4683;50.864;12.086;2023-08-20T14:31:18;11.50;;;10.60;;
9288;SDS011;4683;50.864;12.086;2023-08-20T14:33:46;11.87;;;10.87;;
9288;SDS011;4683;50.864;12.086;2023-08-20T14:36:14;11.80;;;10.87;;
9288;SDS011;4683;50.864;12.086;2023-08-20T14:38:43;12.17;;;11.13;;
9288;SDS011;4683;50.864;12.086;2023-08-20T14:41:13;11.87;;;10.87;;
9288;SDS011;4683;50.864;12.086;2023-08-20T14:43:41;11.77;;;10.87;;
9288;SDS011;4683;50.864;12.086;2023-08-20T14:46:12;11.17;;;10.27;;
9288;SDS011;4683;50.864;12.086;2023-08-20T14:48:40;12.63;;;11.53;;
9288;SDS011;4683;50.864;12.086;2023-08-20T14:51:09;11.33;;;10.43;;
9288;SDS011;4683;50.864;12.086;2023-08-20T14:53:38;11.57;;;10.67;;
9288;SDS011;4683;50.864;12.086;2023-08-20T14:56:07;11.77;;;10.77;;
9288;SDS011;4683;50.864;12.086;2023-08-20T14:58:35;10.57;;;9.77;;
9288;SDS011;4683;50.864;12.086;2023-08-20T15:01:07;11.07;;;10.07;;
9288;SDS011;4683;50.864;12.086;2023-08-20T15:03:37;10.20;;;9.37;;
9288;SDS011;4683;50.864;12.086;2023-08-20T15:06:06;10.40;;;9.50;;
9288;SDS011;4683;50.864;12.086;2023-08-20T15:08:34;12.13;;;10.93;;
9288;SDS011;4683;50.864;12.086;2023-08-20T15:11:02;11.33;;;10.43;;